Time;durP1;ratioP1;P1;durP2;ratioP2;P2;SDS_P1;SDS_P2;PMS_P1;PMS_P2;Temp;Humidity;BMP_temperature;BMP_pressure;BME280_temperature;BME280_humidity;BME280_pressure;Samples;Min_cycle;Max_cycle;Signal;HPM_P1;HPM_P2
2022/12/29 00:02:14;;;;;;;39.80;27.40;;;;;;;0.27;100.00;98999.21;106055;1288;59277;-70
2022/12/29 00:04:40;;;;;;;40.10;27.30;;;;;;;0.26;100.00;99002.88;105173;1292;1002288;-70
2022/12/29 00:07:07;;;;;;;38.80;27.10;;;;;;;0.25;100.00;99005.52;106058;1287;58903;-71
2022/12/29 00:09:34;;;;;;;37.70;26.80;;;;;;;0.22;100.00;99006.81;105795;1294;59096;-71
2022/12/29 00:12:02;;;;;;;37.10;26.70;;;;;;;0.21;100.00;99003.17;105900;1288;61000;-71
2022/12/29 00:17:13;;;;;;;44.50;28.70;;;;;;;0.25;100.00;99005.36;106019;1289;58936;-71
2022/12/29 00:36:27;;;;;;;40.70;26.10;;;;;;;0.33;100.00;99004.63;106059;1289;65853;-71
2022/12/29 00:44:28;;;;;;;39.10;25.40;;;;;;;0.29;100.00;98997.04;106072;1289;59127;-71
2022/12/29 00:46:54;;;;;;;37.20;25.40;;;;;;;0.27;100.00;98992.54;105778;1283;58942;-71
2022/12/29 00:49:30;;;;;;;37.00;26.40;;;;;;;0.26;100.00;98989.25;106040;1289;58928;-71
2022/12/29 00:51:57;;;;;;;41.80;27.80;;;;;;;0.25;100.00;98980.38;106057;1287;59959;-71
2022/12/29 00:54:23;;;;;;;34.90;25.20;;;;;;;0.24;100.00;98978.13;106050;1289;64807;-71
2022/12/29 00:56:53;;;;;;;36.70;24.50;;;;;;;0.24;100.00;98980.57;106065;1288;59171;-71
2022/12/29 00:59:19;;;;;;;38.60;24.80;;;;;;;0.21;100.00;98976.95;106051;1289;58902;-71
2022/12/29 01:01:46;;;;;;;36.00;25.00;;;;;;;0.19;100.00;98976.14;106058;1288;59650;-71
2022/12/29 01:04:13;;;;;;;42.30;24.60;;;;;;;0.18;100.00;98976.84;106081;1281;60716;-70
2022/12/29 01:06:40;;;;;;;36.60;24.80;;;;;;;0.17;100.00;98971.10;106033;1287;59120;-71
2022/12/29 01:11:53;;;;;;;47.40;33.20;;;;;;;0.12;100.00;98969.86;106068;1288;59038;-71
2022/12/29 01:14:19;;;;;;;42.40;30.40;;;;;;;0.12;100.00;98968.13;106060;1288;58911;-71
2022/12/29 01:16:46;;;;;;;43.10;29.50;;;;;;;0.14;100.00;98963.01;106069;1289;58928;-71
2022/12/29 01:19:14;;;;;;;38.00;29.10;;;;;;;0.17;100.00;98960.45;106048;1283;58864;-71
2022/12/29 01:21:40;;;;;;;42.10;30.40;;;;;;;0.20;100.00;98958.98;105911;1285;58814;-71
2022/12/29 01:24:06;;;;;;;44.20;28.90;;;;;;;0.23;100.00;98953.15;106096;1295;58787;-72
2022/12/29 01:26:33;;;;;;;41.80;28.70;;;;;;;0.27;100.00;98955.69;106059;1288;59108;-71
2022/12/29 01:28:59;;;;;;;43.30;29.10;;;;;;;0.31;100.00;98963.09;105645;1282;59355;-71
2022/12/29 01:31:25;;;;;;;41.00;28.50;;;;;;;0.34;100.00;98961.08;106037;1287;58928;-71
2022/12/29 01:33:52;;;;;;;41.00;30.10;;;;;;;0.35;100.00;98965.61;106050;1289;59064;-71
2022/12/29 01:36:18;;;;;;;46.60;32.10;;;;;;;0.36;100.00;98972.73;105990;1282;58849;-71
2022/12/29 01:38:45;;;;;;;43.00;30.50;;;;;;;0.40;100.00;98975.06;106077;1287;59063;-70
2022/12/29 01:41:13;;;;;;;98.80;50.50;;;;;;;0.48;100.00;98973.83;106044;1288;58940;-71
2022/12/29 01:43:39;;;;;;;60.20;34.80;;;;;;;0.59;100.00;98978.27;106067;1283;64905;-71
2022/12/29 01:46:27;;;;;;;45.70;29.90;;;;;;;0.66;100.00;98981.91;106067;1287;59093;-71
2022/12/29 01:48:59;;;;;;;45.80;33.30;;;;;;;0.73;100.00;98977.00;103100;1298;1002994;-71
2022/12/29 01:51:30;;;;;;;45.80;31.70;;;;;;;0.78;100.00;98975.30;105279;1303;66995;-71
2022/12/29 01:53:59;;;;;;;45.00;32.00;;;;;;;0.81;100.00;98971.88;105145;1300;60044;-71
2022/12/29 01:56:25;;;;;;;45.60;32.30;;;;;;;0.84;100.00;98972.15;105263;1292;64886;-71
2022/12/29 01:59:00;;;;;;;39.30;29.40;;;;;;;0.85;100.00;98973.01;105257;1298;58918;-71
2022/12/29 02:01:26;;;;;;;44.30;30.60;;;;;;;0.85;100.00;98965.84;105279;1300;59066;-71
2022/12/29 02:03:52;;;;;;;47.70;31.50;;;;;;;0.85;100.00;98964.92;105134;1302;59067;-70
2022/12/29 02:06:23;;;;;;;40.80;28.90;;;;;;;0.87;100.00;98957.52;105266;1300;58992;-71
2022/12/29 02:08:53;;;;;;;44.20;30.10;;;;;;;0.90;100.00;98950.13;105260;1300;63897;-71
2022/12/29 02:11:19;;;;;;;41.70;29.70;;;;;;;0.92;100.00;98945.52;105259;1296;58992;-71
2022/12/29 02:13:46;;;;;;;38.40;26.90;;;;;;;0.94;100.00;98941.10;104547;1291;1003031;-71
2022/12/29 02:16:49;;;;;;;40.20;27.60;;;;;;;0.94;100.00;98937.93;105150;1303;58961;-70
2022/12/29 02:19:17;;;;;;;42.30;27.90;;;;;;;0.92;100.00;98935.02;105292;1300;61035;-71
2022/12/29 02:22:02;;;;;;;44.60;28.00;;;;;;;0.92;100.00;98928.19;105242;1293;65123;-71
2022/12/29 02:24:54;;;;;;;42.20;28.10;;;;;;;0.93;100.00;98922.77;105254;1291;58994;-71
2022/12/29 02:27:50;;;;;;;34.80;26.00;;;;;;;0.92;100.00;98917.88;105924;1288;58888;-70
2022/12/29 02:30:35;;;;;;;36.80;25.50;;;;;;;0.89;100.00;98916.38;106057;1288;66873;-71
2022/12/29 02:33:11;;;;;;;34.90;24.90;;;;;;;0.87;100.00;98916.11;106053;1289;61179;-70
2022/12/29 02:36:01;;;;;;;34.60;23.10;;;;;;;0.85;100.00;98904.42;105742;1292;64159;-70
2022/12/29 02:38:40;;;;;;;32.00;21.80;;;;;;;0.85;100.00;98897.62;106044;1288;58994;-70
2022/12/29 02:41:13;;;;;;;29.80;20.00;;;;;;;0.83;100.00;98899.41;106056;1282;59545;-71
2022/12/29 02:44:04;;;;;;;29.20;20.90;;;;;;;0.82;100.00;98903.13;106042;1287;65965;-70
2022/12/29 02:46:41;;;;;;;31.00;22.00;;;;;;;0.82;100.00;98903.49;106046;1288;59850;-71
2022/12/29 02:49:18;;;;;;;32.00;22.40;;;;;;;0.80;100.00;98897.23;106036;1288;63367;-71
2022/12/29 02:52:03;;;;;;;31.20;23.10;;;;;;;0.80;100.00;98888.86;106048;1283;58955;-71
2022/12/29 02:54:40;;;;;;;36.40;23.90;;;;;;;0.80;100.00;98880.28;106053;1285;58820;-71
2022/12/29 02:57:30;;;;;;;32.40;22.60;;;;;;;0.80;100.00;98879.73;106040;1285;65817;-72
2022/12/29 02:59:59;;;;;;;32.40;24.20;;;;;;;0.79;100.00;98874.52;106052;1285;60986;-71
2022/12/29 03:03:12;;;;;;;31.10;23.50;;;;;;;0.78;100.00;98875.42;106029;1288;65001;-71
2022/12/29 03:06:12;;;;;;;31.30;25.20;;;;;;;0.75;100.00;98880.24;106056;1295;59006;-72
2022/12/29 03:08:47;;;;;;;37.90;28.60;;;;;;;0.69;100.00;98880.94;106070;1287;58802;-72
2022/12/29 03:17:50;;;;;;;47.90;34.00;;;;;;;0.75;100.00;98896.85;105978;1292;65084;-72
2022/12/29 03:20:26;;;;;;;36.00;28.20;;;;;;;0.78;100.00;98903.09;106051;1281;58945;-71
2022/12/29 03:23:00;;;;;;;33.60;25.80;;;;;;;0.75;100.00;98898.61;106076;1289;58936;-70
2022/12/29 03:25:33;;;;;;;38.10;26.30;;;;;;;0.69;100.00;98895.48;105929;1290;66154;-70
2022/12/29 03:28:06;;;;;;;40.60;27.80;;;;;;;0.61;100.00;98894.09;106070;1282;58921;-71
2022/12/29 03:30:35;;;;;;;41.10;29.90;;;;;;;0.58;100.00;98899.60;105703;1289;72026;-71
2022/12/29 03:33:05;;;;;;;40.00;31.40;;;;;;;0.57;100.00;98906.30;106047;1288;58978;-71
2022/12/29 03:35:36;;;;;;;37.90;29.60;;;;;;;0.54;100.00;98911.43;106079;1282;58828;-71
2022/12/29 03:38:02;;;;;;;38.00;27.40;;;;;;;0.52;100.00;98901.20;106052;1289;66035;-71
2022/12/29 03:40:31;;;;;;;32.60;25.10;;;;;;;0.51;100.00;98900.34;105859;1286;59251;-71
2022/12/29 03:42:58;;;;;;;37.00;26.30;;;;;;;0.51;100.00;98897.52;106041;1292;65104;-71
2022/12/29 03:45:24;;;;;;;42.90;28.50;;;;;;;0.51;100.00;98895.45;105705;1294;58925;-73
2022/12/29 03:47:52;;;;;;;37.30;27.60;;;;;;;0.51;100.00;98896.48;106068;1287;59009;-72
2022/12/29 03:50:19;;;;;;;34.50;26.60;;;;;;;0.51;100.00;98897.37;106053;1281;66898;-71
2022/12/29 03:52:45;;;;;;;33.00;25.50;;;;;;;0.50;100.00;98897.73;106066;1281;58949;-71
2022/12/29 03:55:11;;;;;;;39.30;28.10;;;;;;;0.50;100.00;98898.10;105824;1290;59037;-71
2022/12/29 03:57:37;;;;;;;40.20;28.50;;;;;;;0.49;100.00;98890.44;106018;1289;58878;-72
2022/12/29 04:00:05;;;;;;;37.20;28.40;;;;;;;0.45;100.00;98893.84;106062;1282;58913;-71
2022/12/29 04:02:32;;;;;;;36.70;28.60;;;;;;;0.40;100.00;98889.62;106075;1281;65862;-72
2022/12/29 04:04:58;;;;;;;39.20;29.50;;;;;;;0.35;100.00;98891.35;106062;1282;58953;-71
2022/12/29 04:07:24;;;;;;;39.90;29.80;;;;;;;0.31;100.00;98890.23;106050;1288;58931;-71
2022/12/29 04:09:51;;;;;;;43.80;31.40;;;;;;;0.27;100.00;98885.96;106073;1288;58956;-71
2022/12/29 04:12:17;;;;;;;36.70;29.20;;;;;;;0.24;100.00;98884.98;106053;1282;59048;-71
2022/12/29 04:14:43;;;;;;;41.50;32.60;;;;;;;0.21;100.00;98895.73;106056;1289;58851;-71
2022/12/29 04:17:09;;;;;;;38.80;31.40;;;;;;;0.16;100.00;98894.83;106048;1285;59397;-71
2022/12/29 04:19:35;;;;;;;40.20;31.00;;;;;;;0.11;100.00;98887.27;105890;1288;59217;-71
2022/12/29 04:22:01;;;;;;;39.20;31.20;;;;;;;0.04;100.00;98882.04;106050;1289;58934;-71
2022/12/29 04:24:28;;;;;;;40.50;31.60;;;;;;;-0.05;100.00;98877.54;106048;1285;59425;-70
2022/12/29 04:26:54;;;;;;;36.40;28.80;;;;;;;-0.13;100.00;98872.16;106070;1288;58849;-71
2022/12/29 04:29:20;;;;;;;39.20;29.60;;;;;;;-0.23;100.00;98872.77;106103;1281;58895;-71
2022/12/29 04:31:46;;;;;;;40.80;34.00;;;;;;;-0.31;100.00;98870.17;106053;1288;58914;-71
2022/12/29 04:34:12;;;;;;;46.10;36.50;;;;;;;-0.37;100.00;98864.41;106057;1288;59074;-71
2022/12/29 04:36:39;;;;;;;44.40;37.40;;;;;;;-0.42;100.00;98856.67;106055;1282;59000;-71
2022/12/29 04:39:07;;;;;;;49.00;38.10;;;;;;;-0.46;100.00;98853.09;106083;1281;58926;-72
2022/12/29 04:41:33;;;;;;;49.60;38.90;;;;;;;-0.46;100.00;98846.30;106037;1288;64315;-72
2022/12/29 04:43:59;;;;;;;39.30;29.70;;;;;;;-0.47;100.00;98842.30;106063;1281;59012;-71
2022/12/29 04:46:25;;;;;;;38.90;29.00;;;;;;;-0.47;100.00;98837.58;106064;1282;59205;-71
2022/12/29 04:48:51;;;;;;;32.80;25.20;;;;;;;-0.46;100.00;98835.98;106080;1288;58939;-71
2022/12/29 04:51:17;;;;;;;32.10;25.50;;;;;;;-0.44;100.00;98829.14;106073;1289;58982;-71
2022/12/29 04:53:43;;;;;;;33.30;24.80;;;;;;;-0.43;100.00;98824.40;106059;1288;58982;-71
2022/12/29 04:56:09;;;;;;;34.80;26.10;;;;;;;-0.39;100.00;98827.27;106070;1282;59083;-71
2022/12/29 04:58:36;;;;;;;34.10;27.30;;;;;;;-0.33;100.00;98834.79;106052;1287;59363;-71
2022/12/29 05:01:02;;;;;;;32.00;26.70;;;;;;;-0.27;100.00;98836.89;106058;1288;59277;-72
2022/12/29 05:03:28;;;;;;;35.30;26.80;;;;;;;-0.19;100.00;98834.98;106050;1282;59061;-71
2022/12/29 05:05:55;;;;;;;35.30;27.30;;;;;;;-0.13;100.00;98832.35;106045;1282;58969;-72
2022/12/29 05:08:23;;;;;;;30.40;23.30;;;;;;;-0.07;100.00;98831.84;106049;1283;58889;-71
2022/12/29 05:10:52;;;;;;;42.40;31.50;;;;;;;-0.01;100.00;98834.13;105939;1289;58886;-72
2022/12/29 05:13:18;;;;;;;35.90;29.60;;;;;;;0.00;100.00;98840.05;106066;1286;64471;-71
2022/12/29 05:15:51;;;;;;;29.80;24.40;;;;;;;-0.01;100.00;98843.55;106053;1281;60075;-71
2022/12/29 05:18:18;;;;;;;33.40;26.70;;;;;;;-0.01;100.00;98836.73;105910;1292;65275;-70
2022/12/29 05:20:45;;;;;;;34.90;27.80;;;;;;;0.01;100.00;98838.44;106048;1291;58936;-72
2022/12/29 05:23:12;;;;;;;33.50;25.30;;;;;;;0.02;100.00;98835.30;106059;1281;58751;-71
2022/12/29 05:25:38;;;;;;;37.60;28.70;;;;;;;0.01;100.00;98834.08;106058;1288;58855;-71
2022/12/29 05:28:04;;;;;;;32.60;24.90;;;;;;;-0.00;100.00;98834.13;106058;1287;59086;-72
2022/12/29 05:30:30;;;;;;;34.70;26.30;;;;;;;-0.02;100.00;98832.59;106065;1288;58999;-72
2022/12/29 05:32:56;;;;;;;37.40;27.60;;;;;;;-0.04;100.00;98834.73;106073;1288;58945;-71
2022/12/29 05:35:22;;;;;;;35.50;28.50;;;;;;;-0.07;100.00;98837.07;106077;1285;59105;-71
2022/12/29 05:37:49;;;;;;;36.00;29.40;;;;;;;-0.10;100.00;98830.69;106070;1288;59007;-71
2022/12/29 05:40:15;;;;;;;39.70;30.60;;;;;;;-0.13;100.00;98828.69;106065;1281;58978;-72
2022/12/29 05:42:41;;;;;;;39.30;28.30;;;;;;;-0.16;100.00;98827.53;105584;1288;142069;-71
2022/12/29 05:45:09;;;;;;;39.60;28.50;;;;;;;-0.18;100.00;98825.14;106045;1274;58945;-72
2022/12/29 05:47:35;;;;;;;39.70;28.30;;;;;;;-0.21;100.00;98824.88;105756;1297;58965;-71
2022/12/29 05:50:03;;;;;;;38.50;26.70;;;;;;;-0.28;100.00;98816.34;106075;1296;58964;-71
2022/12/29 05:52:28;;;;;;;38.00;26.50;;;;;;;-0.33;100.00;98815.06;105339;1281;1002308;-72
2022/12/29 05:54:55;;;;;;;34.60;26.40;;;;;;;-0.39;100.00;98809.65;106053;1294;59057;-70
2022/12/29 05:57:21;;;;;;;35.70;28.10;;;;;;;-0.45;100.00;98809.60;106054;1288;58843;-71
2022/12/29 05:59:46;;;;;;;35.70;27.70;;;;;;;-0.51;100.00;98814.29;104978;1287;1002600;-72
2022/12/29 06:02:13;;;;;;;32.70;27.80;;;;;;;-0.55;100.00;98808.82;106079;1288;59268;-72
2022/12/29 06:04:38;;;;;;;36.90;29.60;;;;;;;-0.58;100.00;98801.55;106053;1288;59016;-71
2022/12/29 06:07:04;;;;;;;39.00;30.10;;;;;;;-0.61;100.00;98804.96;106047;1289;58991;-71
2022/12/29 06:09:31;;;;;;;38.00;31.40;;;;;;;-0.66;100.00;98805.08;106085;1288;59690;-71
2022/12/29 06:11:57;;;;;;;38.10;27.30;;;;;;;-0.68;100.00;98805.81;106065;1289;65769;-72
2022/12/29 06:14:22;;;;;;;33.60;25.70;;;;;;;-0.61;100.00;98816.13;106064;1288;58930;-71
2022/12/29 06:16:49;;;;;;;39.90;31.10;;;;;;;-0.53;100.00;98824.48;106049;1289;59220;-72
2022/12/29 06:19:15;;;;;;;50.40;38.50;;;;;;;-0.41;100.00;98823.65;106059;1285;59539;-71
2022/12/29 06:21:41;;;;;;;51.10;39.00;;;;;;;-0.29;100.00;98823.67;106092;1288;58907;-72
2022/12/29 06:24:07;;;;;;;57.30;45.80;;;;;;;-0.23;100.00;98818.29;105678;1289;59238;-72
2022/12/29 06:26:33;;;;;;;54.40;43.60;;;;;;;-0.17;100.00;98817.45;106059;1289;59103;-72
2022/12/29 06:28:59;;;;;;;56.80;44.50;;;;;;;-0.12;100.00;98816.45;106058;1281;58948;-71
2022/12/29 06:31:25;;;;;;;59.10;46.90;;;;;;;-0.09;100.00;98814.41;106061;1288;58795;-71
2022/12/29 06:33:51;;;;;;;62.10;46.80;;;;;;;-0.07;100.00;98816.98;106053;1288;58944;-71
2022/12/29 06:36:17;;;;;;;52.30;44.00;;;;;;;-0.06;100.00;98815.39;106115;1288;58964;-71
2022/12/29 06:38:44;;;;;;;56.90;45.70;;;;;;;-0.06;100.00;98808.23;106032;1288;65032;-72
2022/12/29 06:41:09;;;;;;;55.00;44.00;;;;;;;-0.06;100.00;98806.85;106033;1282;59032;-71
2022/12/29 06:43:37;;;;;;;53.20;42.80;;;;;;;-0.07;100.00;98805.66;106054;1288;58895;-71
2022/12/29 06:46:04;;;;;;;52.40;42.80;;;;;;;-0.09;100.00;98800.83;106061;1288;66927;-72
2022/12/29 06:48:30;;;;;;;57.00;44.50;;;;;;;-0.12;100.00;98798.13;106075;1287;60916;-72
2022/12/29 06:50:57;;;;;;;53.50;42.40;;;;;;;-0.15;100.00;98796.98;106055;1281;58951;-72
2022/12/29 06:53:23;;;;;;;56.30;43.20;;;;;;;-0.19;100.00;98792.89;106072;1289;58894;-72
2022/12/29 06:55:49;;;;;;;58.80;46.60;;;;;;;-0.22;100.00;98794.34;106061;1281;59159;-71
2022/12/29 06:58:15;;;;;;;67.00;51.80;;;;;;;-0.22;100.00;98799.76;106077;1282;59005;-71
2022/12/29 07:00:41;;;;;;;71.50;55.50;;;;;;;-0.20;100.00;98807.02;106091;1282;58971;-72
2022/12/29 07:03:07;;;;;;;63.70;50.90;;;;;;;-0.21;100.00;98806.20;106049;1288;58949;-71
2022/12/29 07:05:34;;;;;;;65.10;51.80;;;;;;;-0.18;100.00;98807.52;106072;1281;59025;-71
2022/12/29 07:08:00;;;;;;;65.60;52.60;;;;;;;-0.16;100.00;98805.71;106080;1281;59137;-71
2022/12/29 07:10:27;;;;;;;65.00;51.70;;;;;;;-0.14;100.00;98804.63;106070;1282;59378;-71
2022/12/29 07:12:53;;;;;;;62.50;51.50;;;;;;;-0.13;100.00;98797.41;105869;1285;59484;-71
2022/12/29 07:15:19;;;;;;;68.80;54.50;;;;;;;-0.11;100.00;98791.25;106047;1288;59268;-72
2022/12/29 07:17:45;;;;;;;64.30;50.50;;;;;;;-0.07;100.00;98797.10;106047;1288;58825;-71
2022/12/29 07:20:12;;;;;;;67.10;53.50;;;;;;;-0.03;100.00;98796.98;106094;1281;59002;-72
2022/12/29 07:22:38;;;;;;;69.40;52.10;;;;;;;0.02;100.00;98797.04;106058;1288;60886;-72
2022/12/29 07:25:07;;;;;;;67.20;52.00;;;;;;;0.06;100.00;98795.53;106062;1288;58888;-72
2022/12/29 07:27:33;;;;;;;63.30;50.00;;;;;;;0.10;100.00;98796.98;105687;1287;59342;-71
2022/12/29 07:29:59;;;;;;;62.90;50.60;;;;;;;0.13;100.00;98799.15;106088;1288;58797;-72
2022/12/29 07:32:25;;;;;;;68.20;52.40;;;;;;;0.19;100.00;98796.89;106055;1282;58953;-72
2022/12/29 07:34:52;;;;;;;64.30;52.30;;;;;;;0.26;100.00;98790.77;106069;1280;59225;-71
2022/12/29 07:37:18;;;;;;;65.80;53.60;;;;;;;0.32;100.00;98792.69;106039;1282;58866;-71
2022/12/29 07:39:44;;;;;;;68.10;55.50;;;;;;;0.39;100.00;98793.02;106068;1288;59397;-71
2022/12/29 07:42:11;;;;;;;69.30;53.30;;;;;;;0.44;100.00;98789.54;106083;1288;59122;-72
2022/12/29 07:44:36;;;;;;;64.30;51.30;;;;;;;0.51;100.00;98781.31;105717;1286;59282;-71
2022/12/29 07:47:02;;;;;;;63.60;53.00;;;;;;;0.56;100.00;98775.36;106037;1287;59247;-72
2022/12/29 07:49:28;;;;;;;68.40;54.20;;;;;;;0.62;100.00;98781.33;106056;1296;58908;-72
2022/12/29 07:51:54;;;;;;;70.10;56.00;;;;;;;0.69;100.00;98789.52;106061;1282;58915;-71
2022/12/29 07:54:22;;;;;;;63.60;53.70;;;;;;;0.75;100.00;98801.36;106110;1288;58903;-71
2022/12/29 07:56:48;;;;;;;66.90;52.40;;;;;;;0.83;100.00;98798.86;106066;1280;60827;-72
2022/12/29 07:59:14;;;;;;;65.50;54.00;;;;;;;0.92;100.00;98800.52;106035;1281;59225;-71
2022/12/29 08:01:40;;;;;;;56.80;47.40;;;;;;;0.99;100.00;98803.79;106067;1281;59002;-71
2022/12/29 08:04:06;;;;;;;58.10;47.20;;;;;;;1.08;100.00;98809.11;106050;1289;58917;-73
2022/12/29 08:06:32;;;;;;;62.30;44.70;;;;;;;1.15;100.00;98819.56;106078;1288;59359;-71
2022/12/29 08:09:00;;;;;;;54.20;43.50;;;;;;;1.22;100.00;98826.86;106054;1288;59000;-71
2022/12/29 08:11:27;;;;;;;50.70;42.60;;;;;;;1.29;100.00;98825.92;106049;1288;59738;-71
2022/12/29 08:13:53;;;;;;;52.20;43.60;;;;;;;1.39;100.00;98822.30;106075;1290;58908;-73
2022/12/29 08:16:19;;;;;;;55.70;44.20;;;;;;;1.47;100.00;98817.82;105983;1284;58928;-71
2022/12/29 08:18:47;;;;;;;52.40;41.60;;;;;;;1.56;100.00;98817.86;106068;1288;59133;-72
2022/12/29 08:21:13;;;;;;;47.90;39.80;;;;;;;1.65;100.00;98810.23;106092;1288;58913;-72
2022/12/29 08:23:41;;;;;;;48.80;39.70;;;;;;;1.76;100.00;98805.64;106048;1288;59249;-71
2022/12/29 08:26:07;;;;;;;53.50;42.30;;;;;;;1.88;100.00;98805.94;106052;1288;58866;-71
2022/12/29 08:28:33;;;;;;;52.80;42.50;;;;;;;2.00;100.00;98807.97;106045;1288;59027;-71
2022/12/29 08:31:01;;;;;;;49.30;42.10;;;;;;;2.13;100.00;98809.27;106057;1281;58957;-71
2022/12/29 08:33:28;;;;;;;55.40;43.20;;;;;;;2.26;100.00;98800.56;106058;1288;61089;-72
2022/12/29 08:36:02;;;;;;;56.20;46.00;;;;;;;2.36;100.00;98801.42;106064;1289;64938;-71
2022/12/29 08:38:31;;;;;;;60.80;49.10;;;;;;;2.47;100.00;98798.91;106052;1289;58888;-71
2022/12/29 08:40:58;;;;;;;66.60;47.20;;;;;;;2.57;100.00;98799.40;106062;1288;58904;-72
2022/12/29 08:43:24;;;;;;;61.60;47.20;;;;;;;2.65;100.00;98796.65;106061;1288;67103;-72
2022/12/29 08:45:50;;;;;;;63.50;50.00;;;;;;;2.73;100.00;98793.02;106065;1287;58929;-72
2022/12/29 08:48:19;;;;;;;61.50;48.30;;;;;;;2.81;100.00;98788.66;106047;1288;59060;-72
2022/12/29 08:50:46;;;;;;;60.00;44.50;;;;;;;2.87;100.00;98781.09;106045;1288;58972;-78
2022/12/29 08:53:12;;;;;;;63.40;48.00;;;;;;;2.94;100.00;98778.00;106053;1288;58850;-73
2022/12/29 08:55:38;;;;;;;61.00;46.80;;;;;;;3.00;100.00;98771.61;106051;1288;58973;-72
2022/12/29 08:58:04;;;;;;;60.70;43.70;;;;;;;3.05;100.00;98767.00;106077;1288;59130;-81
2022/12/29 09:00:30;;;;;;;50.00;38.50;;;;;;;3.12;100.00;98770.61;106066;1289;59239;-72
2022/12/29 09:02:59;;;;;;;59.70;42.50;;;;;;;3.16;100.00;98776.06;106065;1281;59387;-71
2022/12/29 09:05:27;;;;;;;49.90;37.90;;;;;;;3.22;100.00;98777.05;106060;1288;59069;-72
2022/12/29 09:07:53;;;;;;;51.90;35.90;;;;;;;3.31;100.00;98776.52;106057;1285;66079;-70
2022/12/29 09:10:21;;;;;;;56.20;38.90;;;;;;;3.43;100.00;98779.35;106065;1281;58885;-71
2022/12/29 09:12:47;;;;;;;63.30;40.90;;;;;;;3.59;100.00;98776.58;106050;1288;65210;-71
2022/12/29 09:15:15;;;;;;;68.80;39.70;;;;;;;3.77;100.00;98773.18;106078;1289;58895;-71
2022/12/29 09:17:45;;;;;;;105.00;55.00;;;;;;;3.97;100.00;98777.05;105992;1291;59919;-72
2022/12/29 09:20:16;;;;;;;91.80;44.60;;;;;;;4.15;100.00;98783.27;106088;1282;67029;-72
2022/12/29 09:22:43;;;;;;;66.00;35.70;;;;;;;4.34;100.00;98784.91;106056;1288;61032;-72
2022/12/29 09:25:11;;;;;;;79.50;39.30;;;;;;;4.54;100.00;98778.36;106044;1289;65002;-72
2022/12/29 09:27:38;;;;;;;48.50;31.30;;;;;;;4.74;100.00;98776.73;106059;1289;59064;-72
2022/12/29 09:30:06;;;;;;;49.50;29.40;;;;;;;4.96;100.00;98780.80;106116;1281;58955;-72
2022/12/29 09:32:34;;;;;;;39.10;25.30;;;;;;;5.17;100.00;98783.33;106092;1288;66024;-71
2022/12/29 09:35:00;;;;;;;38.70;26.20;;;;;;;5.37;100.00;98778.28;106054;1289;60828;-71
2022/12/29 09:37:27;;;;;;;28.90;19.80;;;;;;;5.56;100.00;98769.41;106091;1281;63963;-72
2022/12/29 09:39:53;;;;;;;33.50;20.90;;;;;;;5.75;100.00;98764.98;106075;1288;59161;-72
2022/12/29 09:42:26;;;;;;;34.30;21.90;;;;;;;5.91;100.00;98758.69;106056;1281;59099;-70
2022/12/29 09:44:55;;;;;;;37.70;25.30;;;;;;;6.06;100.00;98760.03;106061;1289;74178;-71
2022/12/29 09:47:24;;;;;;;43.50;26.60;;;;;;;6.20;100.00;98761.45;106056;1288;59947;-72
2022/12/29 09:49:56;;;;;;;40.90;25.50;;;;;;;6.33;100.00;98762.46;106051;1288;64020;-72
2022/12/29 09:52:29;;;;;;;40.30;22.60;;;;;;;6.49;100.00;98760.95;106026;1288;59015;-72
2022/12/29 09:54:58;;;;;;;34.40;23.00;;;;;;;6.65;100.00;98760.06;106080;1281;58853;-71
2022/12/29 09:57:29;;;;;;;23.80;15.50;;;;;;;6.84;100.00;98762.35;106059;1281;65986;-72
2022/12/29 10:00:34;;;;;;;19.40;14.40;;;;;;;7.08;100.00;98759.42;106062;1289;59808;-70
2022/12/29 10:03:14;;;;;;;22.90;15.40;;;;;;;7.40;100.00;98755.32;105244;1300;64305;-71
2022/12/29 10:06:11;;;;;;;21.30;13.50;;;;;;;7.65;100.00;98760.41;105537;1304;59331;-71
2022/12/29 10:08:52;;;;;;;16.90;12.00;;;;;;;7.89;100.00;98758.96;105516;1295;59079;-71
2022/12/29 10:11:50;;;;;;;18.70;13.00;;;;;;;8.08;100.00;98749.52;105510;1288;65734;-71
2022/12/29 10:14:38;;;;;;;24.10;14.40;;;;;;;8.26;100.00;98742.41;105368;1299;59462;-71
2022/12/29 10:17:25;;;;;;;22.20;14.90;;;;;;;8.45;100.00;98739.83;105500;1289;65028;-71
2022/12/29 10:20:10;;;;;;;21.60;15.90;;;;;;;8.66;100.00;98734.28;105533;1297;59276;-72
2022/12/29 10:23:06;;;;;;;24.00;16.20;;;;;;;8.83;100.00;98732.69;105452;1294;59077;-72
2022/12/29 10:25:38;;;;;;;24.50;16.40;;;;;;;8.96;100.00;98732.52;105495;1280;65988;-71
2022/12/29 10:28:17;;;;;;;20.10;13.90;;;;;;;9.07;100.00;98728.84;105536;1297;61041;-72
2022/12/29 10:30:46;;;;;;;10.60;8.30;;;;;;;9.16;100.00;98722.55;105533;1296;65025;-71
2022/12/29 10:33:19;;;;;;;10.70;6.80;;;;;;;9.26;100.00;98720.50;105543;1293;58949;-73
2022/12/29 10:35:48;;;;;;;10.50;6.30;;;;;;;9.39;100.00;98719.41;105538;1293;59229;-71
2022/12/29 10:38:40;;;;;;;8.50;6.90;;;;;;;9.51;100.00;98718.45;105240;1300;65952;-72
2022/12/29 10:41:27;;;;;;;7.90;6.90;;;;;;;9.61;100.00;98721.86;106061;1288;60092;-72
2022/12/29 10:43:57;;;;;;;12.50;7.90;;;;;;;9.67;100.00;98722.00;105976;1284;65147;-72
2022/12/29 10:46:27;;;;;;;8.90;6.90;;;;;;;9.65;100.00;98718.42;106063;1273;59002;-73
2022/12/29 10:48:53;;;;;;;10.90;8.10;;;;;;;9.60;100.00;98717.51;106076;1289;59139;-71
2022/12/29 10:51:30;;;;;;;10.10;7.70;;;;;;;9.61;100.00;98719.23;106062;1282;59398;-71
2022/12/29 10:54:14;;;;;;;12.30;7.60;;;;;;;9.72;100.00;98717.80;106050;1289;61299;-71
2022/12/29 10:56:49;;;;;;;10.50;6.60;;;;;;;9.90;100.00;98707.51;105841;1292;73020;-70
2022/12/29 10:59:23;;;;;;;9.20;6.70;;;;;;;10.05;100.00;98707.69;106050;1288;58930;-72
2022/12/29 11:02:23;;;;;;;11.40;8.40;;;;;;;10.20;100.00;98705.22;106053;1289;58902;-70
2022/12/29 11:05:16;;;;;;;12.00;9.30;;;;;;;10.42;100.00;98702.48;105360;1296;67359;-71
2022/12/29 11:07:42;;;;;;;9.70;7.10;;;;;;;10.58;100.00;98700.67;104987;1298;60069;-72
2022/12/29 11:10:35;;;;;;;12.50;7.60;;;;;;;10.65;100.00;98697.66;105346;1297;58957;-72
2022/12/29 11:13:18;;;;;;;8.70;7.00;;;;;;;10.70;100.00;98700.42;105371;1297;59138;-71
2022/12/29 11:15:47;;;;;;;9.00;6.50;;;;;;;10.73;100.00;98702.91;105400;1297;59125;-71
2022/12/29 11:18:22;;;;;;;6.50;5.40;;;;;;;10.72;100.00;98701.38;105030;1295;65898;-71
2022/12/29 11:21:00;;;;;;;9.00;6.60;;;;;;;10.70;100.00;98698.34;105374;1297;60884;-71
2022/12/29 11:23:40;;;;;;;9.60;6.70;;;;;;;10.68;100.00;98699.21;105365;1298;65036;-71
2022/12/29 11:26:18;;;;;;;9.50;7.00;;;;;;;10.64;100.00;98700.16;105344;1303;59071;-72
2022/12/29 11:28:48;;;;;;;10.30;6.20;;;;;;;10.61;100.00;98703.25;105384;1297;59051;-71
2022/12/29 11:31:17;;;;;;;;;;;;;;;10.58;100.00;98705.06;105418;1297;67061;-71
2022/12/29 11:33:44;;;;;;;8.90;6.90;;;;;;;10.53;100.00;98704.92;105391;1291;61013;-71
2022/12/29 11:36:20;;;;;;;9.60;6.50;;;;;;;10.49;100.00;98701.63;105348;1298;59128;-72
2022/12/29 11:38:50;;;;;;;8.90;6.20;;;;;;;10.45;100.00;98700.67;105124;1302;59037;-72
2022/12/29 11:41:24;;;;;;;9.70;5.80;;;;;;;10.44;100.00;98706.77;105328;1299;58956;-71
2022/12/29 11:43:52;;;;;;;10.70;6.10;;;;;;;10.44;100.00;98707.27;106055;1289;67112;-71
2022/12/29 11:46:26;;;;;;;8.50;5.20;;;;;;;10.45;100.00;98709.73;105730;1294;60807;-72
2022/12/29 11:48:52;;;;;;;7.40;5.70;;;;;;;10.46;100.00;98709.48;106035;1288;65000;-72
2022/12/29 11:51:25;;;;;;;7.30;5.70;;;;;;;10.47;100.00;98704.79;106021;1288;58884;-71
2022/12/29 11:53:55;;;;;;;7.40;6.10;;;;;;;10.48;100.00;98704.34;106054;1288;59152;-72
2022/12/29 11:56:35;;;;;;;9.70;5.80;;;;;;;10.49;100.00;98705.36;106083;1291;66971;-69